Terminal Aerodrome Forecast
Issued by NWS

Home | Current Version | Previous Version | Graphics & Text | Print | Product List | Glossary On
Versions: 1 2 3 4 5 6 7 8 9 10 11 12 13 14 15 16 17 18 19 20 21 22 23 24
433
FTUS43 KMPX 270224 AAA
TAFRNH
TAF AMD
KRNH 270224Z 2702/2724 08006KT P6SM OVC050
     FM270800 08015G22KT P6SM SCT050 BKN150=

USA.gov is the U.S. government's official web portal to all federal, state and local government web resources and services.